createdAt,value
2019-04-01T00:02:10.021Z,11.04
2019-04-01T00:07:18.851Z,10.16
2019-04-01T00:12:27.560Z,11.25
2019-04-01T00:17:36.326Z,11.27
2019-04-01T00:22:45.360Z,10.88
2019-04-01T00:27:53.908Z,11.54
2019-04-01T00:33:02.733Z,11.38
2019-04-01T00:38:11.351Z,10.25
2019-04-01T00:43:20.105Z,12.53
2019-04-01T00:48:28.867Z,11.61
2019-04-01T00:53:41.514Z,11.41
2019-04-01T00:58:40.012Z,11.54
2019-04-01T01:03:48.945Z,12.93
2019-04-01T01:08:58.055Z,10.77
2019-04-01T01:14:06.824Z,14.31
2019-04-01T01:19:15.583Z,11.94
2019-04-01T01:24:24.625Z,14.10
2019-04-01T01:29:33.284Z,11.42
2019-04-01T01:34:41.913Z,9.97
2019-04-01T01:39:50.794Z,13.19
2019-04-01T01:45:04.953Z,12.21
2019-04-01T01:50:03.448Z,11.07
2019-04-01T01:55:12.574Z,10.88
2019-04-01T02:00:21.332Z,10.79
2019-04-01T02:05:30.016Z,11.58
2019-04-01T02:10:37.346Z,11.48
2019-04-01T02:15:46.050Z,12.34
2019-04-01T02:20:53.731Z,10.42
2019-04-01T02:26:02.516Z,11.97
2019-04-01T02:31:11.432Z,10.93
2019-04-01T02:36:20.032Z,11.83
2019-04-01T02:41:29.043Z,11.88
2019-04-01T02:46:37.690Z,12.04
2019-04-01T02:51:46.562Z,10.87
2019-04-01T02:56:55.376Z,12.80
2019-04-01T03:07:11.447Z,10.91
2019-04-01T03:12:20.411Z,11.70
2019-04-01T03:17:29.112Z,11.43
2019-04-01T03:22:38.165Z,11.59
2019-04-01T03:27:46.858Z,11.76
2019-04-01T03:32:55.739Z,11.13
2019-04-01T03:38:04.603Z,11.81
2019-04-01T03:43:13.303Z,11.22
2019-04-01T03:48:21.848Z,12.71
2019-04-01T03:53:30.699Z,10.48
2019-04-01T03:58:39.388Z,10.58
2019-04-01T04:03:48.502Z,10.80
2019-04-01T04:09:01.522Z,13.33
2019-04-01T04:14:05.810Z,12.64
2019-04-01T04:19:14.384Z,11.20
2019-04-01T04:24:23.056Z,11.72
2019-04-01T04:29:31.761Z,9.92
2019-04-01T04:34:39.152Z,12.17
2019-04-01T04:39:47.823Z,12.83
2019-04-01T04:44:57.254Z,10.17
2019-04-01T04:50:06.964Z,12.29
2019-04-01T04:55:15.629Z,10.51
2019-04-01T05:00:24.458Z,11.36
2019-04-01T05:05:33.099Z,10.74
2019-04-01T05:10:42.288Z,11.43
2019-04-01T05:15:51.230Z,12.48
2019-04-01T05:21:00.202Z,12.55
2019-04-01T05:26:08.871Z,11.34
2019-04-01T05:31:17.470Z,12.33
2019-04-01T05:36:24.972Z,11.84
2019-04-01T05:41:33.606Z,10.32
2019-04-01T05:46:41.118Z,11.70
2019-04-01T05:51:49.970Z,11.93
2019-04-01T05:56:57.438Z,10.42
2019-04-01T06:02:06.183Z,11.03
2019-04-01T06:07:14.961Z,10.58
2019-04-01T06:12:26.139Z,9.38
2019-04-01T06:17:24.847Z,12.47
2019-04-01T06:22:37.727Z,10.55
2019-04-01T06:27:36.491Z,10.10
2019-04-01T06:32:45.204Z,13.13
2019-04-01T06:37:54.988Z,11.32
2019-04-01T06:43:03.729Z,9.41
2019-04-01T06:48:12.569Z,11.12
2019-04-01T06:53:21.208Z,8.66
2019-04-01T06:58:29.919Z,9.52
2019-04-01T07:03:38.551Z,10.00
2019-04-01T07:08:47.361Z,8.60
2019-04-01T07:13:56.186Z,10.02
2019-04-01T07:19:05.032Z,10.72
2019-04-01T07:24:13.788Z,8.33
2019-04-01T07:29:23.864Z,8.79
2019-04-01T07:34:22.409Z,9.57
2019-04-01T07:44:38.366Z,8.77
2019-04-01T07:49:47.798Z,7.94
2019-04-01T07:54:57.583Z,8.59
2019-04-01T08:00:06.554Z,8.47
2019-04-01T08:05:15.909Z,8.51
2019-04-01T08:10:24.650Z,7.31
2019-04-01T08:15:33.892Z,10.75
2019-04-01T08:20:43.162Z,8.64
2019-04-01T08:25:52.284Z,9.81
2019-04-01T08:31:01.730Z,9.52
2019-04-01T08:36:10.891Z,9.32
2019-04-01T08:41:20.327Z,9.12
2019-04-01T08:46:29.452Z,11.80
2019-04-01T08:51:38.810Z,8.50
2019-04-01T08:56:48.097Z,9.43
2019-04-01T09:01:57.546Z,10.58
2019-04-01T09:07:07.580Z,9.11
2019-04-01T09:12:06.795Z,11.57
2019-04-01T09:17:16.324Z,10.37
2019-04-01T09:22:29.185Z,10.88
2019-04-01T09:27:28.198Z,10.68
2019-04-01T09:32:37.651Z,10.83
2019-04-01T09:37:46.803Z,10.82
2019-04-01T09:42:58.844Z,10.85
2019-04-01T09:47:57.809Z,11.04
2019-04-01T09:53:07.193Z,12.57
2019-04-01T09:58:16.520Z,12.49
2019-04-01T10:03:25.981Z,12.19
2019-04-01T10:08:41.977Z,12.48
2019-04-01T10:13:45.107Z,12.06
2019-04-01T10:18:44.040Z,12.31
2019-04-01T10:23:53.306Z,12.35
2019-04-01T10:29:02.405Z,11.47
2019-04-01T10:34:11.553Z,16.34
2019-04-01T10:39:21.039Z,16.13
2019-04-01T10:44:30.412Z,13.34
2019-04-01T10:49:40.806Z,15.14
2019-04-01T10:54:40.040Z,12.33
2019-04-01T10:59:49.280Z,13.81
2019-04-01T11:04:58.814Z,15.30
2019-04-01T11:10:11.350Z,13.25
2019-04-01T11:15:17.340Z,14.06
2019-04-01T11:20:25.955Z,16.41
2019-04-01T11:25:35.472Z,14.18
2019-04-01T11:30:44.679Z,15.35
2019-04-01T11:35:54.192Z,15.02
2019-04-01T11:41:04.051Z,14.62
2019-04-01T11:46:13.402Z,15.65
2019-04-01T11:56:27.043Z,15.96
2019-04-01T12:01:36.873Z,16.45
2019-04-01T12:06:45.129Z,18.59
2019-04-01T12:11:54.350Z,16.64
2019-04-01T12:17:04.040Z,17.20
2019-04-01T12:22:13.859Z,18.47
2019-04-01T12:27:23.152Z,22.31
2019-04-01T12:32:32.359Z,19.10
2019-04-01T12:37:42.517Z,19.92
2019-04-01T12:42:41.547Z,18.15
2019-04-01T12:47:51.064Z,18.79
2019-04-01T12:53:00.444Z,18.47
2019-04-01T12:58:09.796Z,16.76
2019-04-01T13:03:19.099Z,18.78
2019-04-01T13:08:28.744Z,19.11
2019-04-01T13:13:37.965Z,17.32
2019-04-01T13:18:47.631Z,18.46
2019-04-01T13:23:56.357Z,18.00
2019-04-01T13:29:09.841Z,18.50
2019-04-01T13:34:08.820Z,21.43
2019-04-01T13:39:23.183Z,20.15
2019-04-01T13:44:35.791Z,16.89
2019-04-01T13:49:30.744Z,19.43
2019-04-01T13:54:41.254Z,18.19
2019-04-01T13:59:49.897Z,17.94
2019-04-01T14:04:59.180Z,18.28
2019-04-01T14:09:58.521Z,18.42
2019-04-01T14:15:08.018Z,17.42
2019-04-01T14:20:17.537Z,18.43
2019-04-01T14:25:26.706Z,17.84
2019-04-01T14:30:36.435Z,17.88
2019-04-01T14:35:45.234Z,18.64
2019-04-01T14:40:53.447Z,17.92
2019-04-01T14:46:02.790Z,22.56
2019-04-01T14:51:16.102Z,19.12
2019-04-01T14:56:14.288Z,17.83
2019-04-01T15:01:24.431Z,18.56
2019-04-01T15:06:32.084Z,16.41
2019-04-01T15:11:33.551Z,16.49
2019-04-01T15:16:34.924Z,18.35
2019-04-01T15:21:34.212Z,19.67
2019-04-01T15:26:44.073Z,17.08
2019-04-01T15:31:58.234Z,19.21
2019-04-01T15:36:57.255Z,17.01
2019-04-01T15:42:11.953Z,17.61
2019-04-01T15:47:10.814Z,16.58
2019-04-01T15:52:18.298Z,17.44
2019-04-01T15:57:27.800Z,16.34
2019-04-01T16:02:37.001Z,17.50
2019-04-01T16:07:46.415Z,16.57
2019-04-01T16:12:53.977Z,18.85
2019-04-01T16:18:03.797Z,17.13
2019-04-01T16:23:22.642Z,18.34
2019-04-01T16:28:21.650Z,17.12
2019-04-01T16:33:31.552Z,15.91
2019-04-01T16:38:41.847Z,18.10
2019-04-01T16:43:41.791Z,16.03
2019-04-01T16:48:50.737Z,17.98
2019-04-01T16:53:59.171Z,18.30
2019-04-01T16:59:09.098Z,16.05
2019-04-01T17:04:20.405Z,16.44
2019-04-01T17:09:19.237Z,15.58
2019-04-01T17:14:28.416Z,16.46
2019-04-01T17:19:37.603Z,18.15
2019-04-01T17:24:46.943Z,18.25
2019-04-01T17:29:55.863Z,17.50
2019-04-01T17:35:09.083Z,16.39
2019-04-01T17:40:08.030Z,18.50
2019-04-01T17:45:16.460Z,21.58
2019-04-01T17:50:25.858Z,18.92
2019-04-01T17:55:35.043Z,17.78
2019-04-01T18:00:44.969Z,22.02
2019-04-01T18:05:54.224Z,17.99
2019-04-01T18:11:03.549Z,19.52
2019-04-01T18:16:13.194Z,20.33
2019-04-01T18:21:21.519Z,18.77
2019-04-01T18:26:29.018Z,18.65
2019-04-01T18:36:46.094Z,17.27
2019-04-01T18:41:55.200Z,15.82
2019-04-01T18:47:04.024Z,16.91
2019-04-01T18:52:12.384Z,20.02
2019-04-01T18:57:21.823Z,17.33
2019-04-01T19:02:30.244Z,15.74
2019-04-01T19:07:40.112Z,14.30
2019-04-01T19:12:49.620Z,14.64
2019-04-01T19:18:02.833Z,14.18
2019-04-01T19:23:02.523Z,14.53
2019-04-01T19:28:13.718Z,14.82
2019-04-01T19:33:12.918Z,14.82
2019-04-01T19:38:21.950Z,13.65
2019-04-01T19:43:31.200Z,13.05
2019-04-01T19:48:40.602Z,12.89
2019-04-01T19:53:49.945Z,13.52
2019-04-01T19:58:58.430Z,13.32
2019-04-01T20:04:07.444Z,12.70
2019-04-01T20:09:15.313Z,15.00
2019-04-01T20:14:25.149Z,13.23
2019-04-01T20:19:38.864Z,10.91
2019-04-01T20:24:38.140Z,14.32
2019-04-01T20:29:49.076Z,13.74
2019-04-01T20:34:56.772Z,12.83
2019-04-01T20:39:57.026Z,16.31
2019-04-01T20:45:06.485Z,13.85
2019-04-01T20:50:22.766Z,14.09
2019-04-01T20:55:23.004Z,13.21
2019-04-01T21:00:22.202Z,13.16
2019-04-01T21:05:31.180Z,11.80
2019-04-01T21:10:48.654Z,15.84
2019-04-01T21:15:49.075Z,11.78
2019-04-01T21:20:48.631Z,13.79
2019-04-01T21:25:58.110Z,13.03
2019-04-01T21:31:06.344Z,11.48
2019-04-01T21:36:17.717Z,13.36
2019-04-01T21:41:16.966Z,14.08
2019-04-01T21:47:30.616Z,12.25
2019-04-01T21:52:39.544Z,12.61
2019-04-01T21:57:48.690Z,12.18
2019-04-01T22:02:58.146Z,12.85
2019-04-01T22:08:07.206Z,14.03
2019-04-01T22:13:15.024Z,13.99
2019-04-01T22:18:23.545Z,13.24
2019-04-01T22:23:32.914Z,13.51
2019-04-01T22:28:41.413Z,14.24
2019-04-01T22:33:50.100Z,12.64
2019-04-01T22:38:58.615Z,13.09
2019-04-01T22:44:07.532Z,12.87
2019-04-01T22:49:22.997Z,13.84
2019-04-01T22:54:21.782Z,11.57
2019-04-01T22:59:30.358Z,12.84
2019-04-01T23:04:39.505Z,13.39
2019-04-01T23:09:47.438Z,14.97
2019-04-01T23:14:56.279Z,13.65
2019-04-01T23:20:04.888Z,11.91
2019-04-01T23:25:13.728Z,12.96
2019-04-01T23:30:23.006Z,13.61
2019-04-01T23:35:31.985Z,15.49
2019-04-01T23:40:40.665Z,13.52
2019-04-01T23:45:50.037Z,13.58
2019-04-01T23:51:01.453Z,13.21
2019-04-01T23:56:00.322Z,12.91
